Time;durP1;ratioP1;P1;durP2;ratioP2;P2;SDS_P1;SDS_P2;PMS_P1;PMS_P2;Temp;Humidity;BMP_temperature;BMP_pressure;BME280_temperature;BME280_humidity;BME280_pressure;Samples;Min_cycle;Max_cycle;Signal;HPM_P1;HPM_P2
2024/01/23 00:00:07;;;;;;;8.30;1.80;;;;;;;18.45;40.39;101594.34;4949119;29;20035;-69
2024/01/23 00:02:32;;;;;;;7.35;1.77;;;;;;;18.54;40.39;101635.09;4947486;28;20038;-69
2024/01/23 00:04:58;;;;;;;5.75;1.48;;;;;;;18.45;40.25;101618.97;4949075;29;20403;-69
2024/01/23 00:07:23;;;;;;;6.93;1.83;;;;;;;18.36;40.02;101605.53;4949563;29;20031;-69
2024/01/23 00:09:48;;;;;;;5.78;1.75;;;;;;;18.44;40.23;101632.25;4949802;29;20045;-69
2024/01/23 00:12:14;;;;;;;6.38;2.00;;;;;;;18.39;40.09;101635.22;4948038;29;20031;-69
2024/01/23 00:14:39;;;;;;;5.78;1.70;;;;;;;18.41;40.16;101643.03;4949348;28;20058;-69
2024/01/23 00:17:04;;;;;;;6.35;1.77;;;;;;;18.37;39.94;101637.09;4949467;29;20035;-69
2024/01/23 00:19:30;;;;;;;6.90;2.05;;;;;;;18.51;39.87;101661.72;4949240;29;20110;-69
2024/01/23 00:21:55;;;;;;;6.72;2.05;;;;;;;18.34;39.83;101655.81;4949481;29;20094;-68
2024/01/23 00:24:20;;;;;;;7.40;1.80;;;;;;;18.46;39.98;101678.69;4944784;29;20046;-69
2024/01/23 00:26:45;;;;;;;6.65;1.75;;;;;;;18.44;39.83;101661.31;4949142;29;20042;-69
2024/01/23 00:29:11;;;;;;;8.27;2.20;;;;;;;18.33;39.68;101664.69;4949125;29;20089;-69
2024/01/23 00:31:37;;;;;;;7.97;1.90;;;;;;;18.36;39.74;101668.88;4948705;29;20276;-69
2024/01/23 00:34:03;;;;;;;5.75;1.73;;;;;;;18.29;39.65;101665.81;4949084;29;20032;-69
2024/01/23 00:36:28;;;;;;;5.85;2.00;;;;;;;18.39;39.88;101685.38;4948487;28;20105;-70
2024/01/23 00:38:54;;;;;;;7.55;1.80;;;;;;;18.39;40.03;101688.00;4949016;29;20038;-69
2024/01/23 00:41:19;;;;;;;6.00;1.63;;;;;;;18.32;39.96;101673.53;4948652;29;20023;-69
2024/01/23 00:43:45;;;;;;;5.68;1.73;;;;;;;18.28;39.65;101687.91;4948906;29;20135;-69
2024/01/23 00:46:10;;;;;;;7.82;1.85;;;;;;;18.23;39.60;101684.72;4949081;28;20027;-69
2024/01/23 00:48:35;;;;;;;7.57;1.70;;;;;;;18.25;39.95;101699.50;4949161;29;20027;-70
2024/01/23 00:51:00;;;;;;;6.18;1.83;;;;;;;18.29;39.58;101710.69;4948648;29;20028;-69
2024/01/23 00:53:26;;;;;;;5.93;1.50;;;;;;;18.20;39.75;101704.25;4948458;29;20121;-68
2024/01/23 00:55:51;;;;;;;5.97;1.63;;;;;;;18.31;39.64;101716.72;4948672;29;20046;-69
2024/01/23 00:58:16;;;;;;;6.85;1.80;;;;;;;18.24;39.78;101705.72;4948988;29;20067;-69
2024/01/23 01:00:44;;;;;;;6.38;1.67;;;;;;;18.32;39.63;101713.13;4948677;29;20046;-69
2024/01/23 01:03:10;;;;;;;7.07;1.67;;;;;;;18.29;39.63;101724.75;4946677;29;20035;-69
2024/01/23 01:05:36;;;;;;;6.97;1.83;;;;;;;18.28;39.66;101725.69;4947903;29;20039;-69
2024/01/23 01:08:01;;;;;;;6.70;1.70;;;;;;;18.29;39.48;101737.06;4948600;29;20038;-69
2024/01/23 01:10:26;;;;;;;6.70;1.60;;;;;;;18.30;39.47;101733.50;4948651;29;20475;-70
2024/01/23 01:12:53;;;;;;;7.20;1.98;;;;;;;18.17;39.62;101727.38;4948470;29;20043;-69
2024/01/23 01:15:18;;;;;;;7.03;2.15;;;;;;;18.25;39.38;101751.44;4948638;29;20038;-69
2024/01/23 01:17:44;;;;;;;7.65;2.00;;;;;;;18.23;39.18;101742.75;4948854;28;20376;-69
2024/01/23 01:20:09;;;;;;;5.63;1.50;;;;;;;18.13;39.48;101746.03;4948189;29;21063;-69
2024/01/23 01:22:35;;;;;;;7.07;1.70;;;;;;;18.20;39.28;101771.97;4948605;28;20083;-70
2024/01/23 01:25:01;;;;;;;6.63;1.92;;;;;;;18.09;39.17;101762.19;4948246;28;20062;-68
2024/01/23 01:27:27;;;;;;;7.20;1.83;;;;;;;18.21;39.22;101781.59;4951717;29;20035;-69
2024/01/23 01:29:52;;;;;;;7.85;1.92;;;;;;;18.20;39.31;101785.19;4952224;28;20440;-69
2024/01/23 01:32:17;;;;;;;7.30;1.70;;;;;;;18.06;39.17;101771.13;4952176;29;20123;-69
2024/01/23 01:34:43;;;;;;;6.80;1.80;;;;;;;18.15;39.20;101793.44;4950667;29;20678;-69
2024/01/23 01:37:08;;;;;;;8.02;1.70;;;;;;;18.16;39.30;101795.09;4951721;29;20081;-69
2024/01/23 01:39:33;;;;;;;9.55;1.98;;;;;;;18.17;39.10;101790.69;4952154;29;20130;-69
2024/01/23 01:41:59;;;;;;;7.07;1.80;;;;;;;18.13;39.02;101800.56;4952506;29;20734;-69
2024/01/23 01:44:24;;;;;;;6.63;1.67;;;;;;;18.02;39.25;101785.44;4952145;29;20051;-69
2024/01/23 01:46:51;;;;;;;6.68;1.90;;;;;;;18.03;39.15;101788.97;4952024;29;20118;-69
2024/01/23 01:49:17;;;;;;;5.75;1.58;;;;;;;18.13;39.09;101801.44;4951807;28;20031;-68
2024/01/23 01:51:43;;;;;;;6.00;1.70;;;;;;;18.02;39.12;101785.44;4952152;29;20444;-68
2024/01/23 01:54:09;;;;;;;6.68;1.70;;;;;;;18.13;39.35;101808.50;4952101;29;20035;-69
2024/01/23 01:56:35;;;;;;;8.15;2.35;;;;;;;18.03;39.04;101792.44;4951865;28;20079;-69
2024/01/23 01:59:00;;;;;;;6.30;1.73;;;;;;;18.09;39.36;101815.78;4951869;29;20488;-69
2024/01/23 02:01:27;;;;;;;7.63;2.03;;;;;;;18.08;39.06;101824.63;4951795;28;20113;-69
2024/01/23 02:03:52;;;;;;;6.18;1.95;;;;;;;17.98;38.88;101834.09;4949918;28;20046;-69
2024/01/23 02:06:18;;;;;;;6.68;1.42;;;;;;;18.06;39.09;101857.34;4951521;28;20028;-69
2024/01/23 02:08:43;;;;;;;5.55;1.58;;;;;;;18.04;38.98;101852.16;4951727;28;20353;-69
2024/01/23 02:11:09;;;;;;;5.63;1.77;;;;;;;18.05;39.11;101863.53;4951835;29;20054;-69
2024/01/23 02:13:35;;;;;;;5.82;1.70;;;;;;;17.94;39.05;101853.69;4951363;29;20034;-69
2024/01/23 02:16:00;;;;;;;7.47;1.88;;;;;;;18.03;39.12;101883.91;4951757;28;20106;-69
2024/01/23 02:18:26;;;;;;;4.63;1.45;;;;;;;18.00;39.03;101876.19;4951895;28;20035;-69
2024/01/23 02:20:51;;;;;;;6.68;2.00;;;;;;;18.00;38.84;101865.66;4948787;28;20125;-69
2024/01/23 02:23:17;;;;;;;7.85;1.90;;;;;;;18.02;38.71;101864.56;4951398;29;20035;-68
2024/01/23 02:25:43;;;;;;;7.85;2.50;;;;;;;17.87;38.87;101850.56;4950993;29;20039;-67
2024/01/23 02:28:10;;;;;;;6.78;1.95;;;;;;;18.02;39.16;101890.97;4951072;29;20455;-68
2024/01/23 02:30:36;;;;;;;6.13;1.40;;;;;;;17.98;38.92;101892.13;4951487;28;20054;-68
2024/01/23 02:33:05;;;;;;;6.05;1.77;;;;;;;17.93;38.99;101889.78;4950889;28;20476;-68
2024/01/23 02:35:33;;;;;;;6.53;1.67;;;;;;;17.96;39.03;101894.00;4951203;28;20087;-67
2024/01/23 02:37:59;;;;;;;7.30;1.80;;;;;;;17.88;38.99;101894.50;4949927;28;20117;-68
2024/01/23 02:40:25;;;;;;;6.07;1.75;;;;;;;17.86;38.96;101893.69;4950995;28;20110;-68
2024/01/23 02:42:50;;;;;;;7.20;1.92;;;;;;;17.98;39.20;101913.22;4951161;29;20031;-68
2024/01/23 02:45:15;;;;;;;9.23;1.90;;;;;;;17.85;38.95;101897.28;4950984;28;20077;-69
2024/01/23 02:47:41;;;;;;;5.82;1.50;;;;;;;17.85;39.03;101906.97;4951110;29;20038;-69
2024/01/23 02:50:08;;;;;;;7.35;1.98;;;;;;;17.95;39.24;101932.72;4950895;28;20058;-69
2024/01/23 02:52:33;;;;;;;5.68;1.58;;;;;;;17.94;39.20;101935.44;4950843;28;20098;-69
2024/01/23 02:54:58;;;;;;;6.72;1.90;;;;;;;17.95;39.19;101937.97;4950413;29;20027;-69
2024/01/23 02:57:27;;;;;;;5.47;1.65;;;;;;;17.87;39.12;101920.94;4950732;29;20027;-68
2024/01/23 02:59:53;;;;;;;7.28;1.95;;;;;;;17.84;39.10;101921.13;4950691;29;20376;-69
2024/01/23 03:02:19;;;;;;;6.35;1.95;;;;;;;17.93;39.02;101957.50;4948327;28;20085;-71
2024/01/23 03:04:45;;;;;;;6.68;1.63;;;;;;;17.92;38.88;101964.56;4950024;28;20373;-69
2024/01/23 03:07:11;;;;;;;8.70;1.70;;;;;;;17.91;39.07;101965.50;4950406;29;20031;-69
2024/01/23 03:09:36;;;;;;;6.10;1.90;;;;;;;17.87;38.96;101957.84;4950686;28;20042;-69
2024/01/23 03:12:17;;;;;;;7.30;2.10;;;;;;;17.79;38.75;101955.69;4950533;29;20038;-69
2024/01/23 03:14:43;;;;;;;6.90;1.73;;;;;;;17.80;38.92;101956.53;4950782;28;20078;-69
2024/01/23 03:17:10;;;;;;;8.40;1.60;;;;;;;17.77;38.94;101955.78;4950237;28;20050;-70
2024/01/23 03:19:35;;;;;;;8.23;1.90;;;;;;;17.87;38.82;101989.50;4950646;29;20046;-69
2024/01/23 03:22:00;;;;;;;6.95;1.52;;;;;;;17.76;39.02;101975.19;4950053;29;20035;-69
2024/01/23 03:24:26;;;;;;;7.43;2.00;;;;;;;17.75;38.85;101981.41;4949752;29;20035;-68
2024/01/23 03:26:51;;;;;;;10.50;2.00;;;;;;;17.88;38.66;102015.81;4950137;29;20057;-68
2024/01/23 03:29:16;;;;;;;7.53;2.00;;;;;;;17.87;39.09;102023.78;4950254;29;20046;-68
2024/01/23 03:31:41;;;;;;;6.38;1.80;;;;;;;17.87;39.09;102024.63;4949525;29;20506;-68
2024/01/23 03:34:07;;;;;;;8.10;1.73;;;;;;;17.84;39.03;102008.16;4950059;29;20046;-69
2024/01/23 03:36:32;;;;;;;6.38;2.10;;;;;;;17.85;38.61;102012.47;4950002;29;20574;-69
2024/01/23 03:38:57;;;;;;;10.00;2.40;;;;;;;17.85;39.02;102001.91;4949841;29;20412;-69
2024/01/23 03:41:23;;;;;;;6.78;1.55;;;;;;;17.75;38.75;101996.38;4949946;29;20035;-69
2024/01/23 03:43:48;;;;;;;6.28;1.98;;;;;;;17.73;38.88;101988.53;4950116;29;20098;-69
2024/01/23 03:46:13;;;;;;;6.32;2.00;;;;;;;17.83;38.86;102009.06;4949458;29;20042;-69
2024/01/23 03:48:38;;;;;;;7.45;2.15;;;;;;;17.77;38.75;102005.03;4949556;28;20050;-68
2024/01/23 03:51:04;;;;;;;5.32;1.60;;;;;;;17.69;39.16;102013.41;4949841;29;20472;-68
2024/01/23 03:53:29;;;;;;;7.25;1.90;;;;;;;17.80;39.15;102036.50;4950054;28;20074;-68
2024/01/23 03:55:54;;;;;;;6.60;1.80;;;;;;;17.70;38.88;102024.81;4949748;29;20114;-69
2024/01/23 03:58:20;;;;;;;7.38;1.73;;;;;;;17.71;38.86;102032.63;4949620;29;20035;-70
2024/01/23 04:00:45;;;;;;;7.72;1.83;;;;;;;17.65;38.95;102034.78;4949658;29;20038;-69
2024/01/23 04:03:10;;;;;;;5.70;1.80;;;;;;;17.81;38.87;102079.53;4947627;29;20039;-69
2024/01/23 04:05:36;;;;;;;7.72;1.77;;;;;;;17.66;39.02;102042.59;4949088;29;20289;-70
2024/01/23 04:08:02;;;;;;;7.57;2.20;;;;;;;17.77;39.06;102063.91;4949514;29;20090;-69
2024/01/23 04:10:27;;;;;;;5.32;1.70;;;;;;;17.71;38.74;102056.34;4949076;28;20488;-70
2024/01/23 04:12:53;;;;;;;5.57;1.73;;;;;;;17.80;38.69;102075.19;4949371;29;20095;-69
2024/01/23 04:15:18;;;;;;;6.75;1.67;;;;;;;17.78;38.63;102067.38;4949055;29;20388;-69
2024/01/23 04:17:43;;;;;;;6.45;1.63;;;;;;;17.64;38.93;102051.53;4949154;29;20074;-69
2024/01/23 04:20:09;;;;;;;5.82;1.60;;;;;;;17.75;38.69;102067.56;4949239;29;20038;-69
2024/01/23 04:22:35;;;;;;;5.78;1.70;;;;;;;17.62;38.60;102053.44;4948858;28;20424;-70
2024/01/23 04:25:00;;;;;;;6.90;1.60;;;;;;;17.72;38.82;102068.59;4949184;29;20039;-70
2024/01/23 04:27:25;;;;;;;7.93;2.03;;;;;;;17.71;38.72;102081.88;4949524;29;20035;-70
2024/01/23 04:29:51;;;;;;;6.55;1.60;;;;;;;17.72;39.06;102079.16;4949173;29;20082;-70
2024/01/23 04:32:19;;;;;;;7.05;1.92;;;;;;;17.63;38.74;102082.34;4948619;29;20042;-69
2024/01/23 04:34:45;;;;;;;6.82;1.70;;;;;;;17.71;38.85;102101.19;4949147;29;20090;-69
2024/01/23 04:37:10;;;;;;;6.70;2.10;;;;;;;17.71;38.96;102105.59;4948703;29;20063;-68
2024/01/23 04:39:35;;;;;;;7.15;1.67;;;;;;;17.68;38.70;102118.97;4949067;29;20030;-69
2024/01/23 04:42:00;;;;;;;6.57;1.67;;;;;;;17.56;38.86;102104.72;4948632;29;20079;-69
2024/01/23 04:44:26;;;;;;;7.03;1.77;;;;;;;17.60;38.67;102122.06;4949272;29;20436;-69
2024/01/23 04:46:51;;;;;;;7.45;2.05;;;;;;;17.68;38.69;102145.34;4948500;29;20090;-69
2024/01/23 04:49:17;;;;;;;6.63;2.10;;;;;;;17.54;38.69;102125.88;4949151;29;20389;-70
2024/01/23 04:51:42;;;;;;;7.88;1.70;;;;;;;17.51;38.89;102133.13;4948503;29;20030;-69
2024/01/23 04:54:07;;;;;;;6.47;2.08;;;;;;;17.55;38.94;102146.03;4948425;29;20456;-70
2024/01/23 04:56:32;;;;;;;6.82;1.77;;;;;;;17.55;38.77;102147.84;4948429;29;20384;-69
2024/01/23 04:58:58;;;;;;;7.10;1.70;;;;;;;17.54;38.58;102139.06;4948154;29;20766;-69
2024/01/23 05:01:23;;;;;;;7.20;1.98;;;;;;;17.55;38.57;102142.56;4947946;28;20035;-69
2024/01/23 05:03:48;;;;;;;6.97;1.70;;;;;;;17.55;38.56;102142.56;4945257;29;20169;-68
2024/01/23 05:06:14;;;;;;;6.60;1.90;;;;;;;17.63;38.60;102166.69;4948446;29;20057;-69
2024/01/23 05:08:39;;;;;;;6.10;2.00;;;;;;;17.53;38.56;102166.38;4948303;29;20046;-68
2024/01/23 05:11:04;;;;;;;7.97;2.22;;;;;;;17.63;38.61;102184.31;4948839;29;20473;-69
2024/01/23 05:13:29;;;;;;;6.40;1.75;;;;;;;17.50;38.52;102173.59;4948808;29;20038;-69
2024/01/23 05:15:55;;;;;;;7.38;2.45;;;;;;;17.56;38.46;102187.28;4948444;29;20035;-69
2024/01/23 05:18:20;;;;;;;7.72;2.08;;;;;;;17.54;38.48;102193.59;4948294;29;20543;-69
2024/01/23 05:20:45;;;;;;;9.02;2.60;;;;;;;17.61;38.69;102204.63;4948781;29;20528;-69
2024/01/23 05:23:11;;;;;;;6.45;1.85;;;;;;;17.42;38.57;102174.06;4948710;29;20484;-69
2024/01/23 05:25:38;;;;;;;7.53;1.75;;;;;;;17.59;38.70;102204.69;4948254;29;20035;-70
2024/01/23 05:28:04;;;;;;;6.25;1.73;;;;;;;17.61;38.72;102213.41;4948355;28;20110;-69
2024/01/23 05:30:29;;;;;;;5.43;1.60;;;;;;;17.49;38.45;102199.13;4948161;29;20122;-69
2024/01/23 05:32:54;;;;;;;7.03;2.00;;;;;;;17.59;38.63;102221.41;4948107;29;20041;-69
2024/01/23 05:35:19;;;;;;;7.85;1.65;;;;;;;17.47;38.47;102202.78;4948177;29;20497;-69
2024/01/23 05:37:45;;;;;;;6.93;1.88;;;;;;;17.45;38.42;102200.25;4947746;29;20036;-68
2024/01/23 05:40:11;;;;;;;8.45;2.05;;;;;;;17.46;38.57;102203.72;4948131;29;20027;-69
2024/01/23 05:42:37;;;;;;;5.78;1.70;;;;;;;17.53;38.51;102237.56;4947030;29;20421;-68
2024/01/23 05:45:03;;;;;;;5.82;1.65;;;;;;;17.55;38.61;102240.09;4948268;28;20039;-69
2024/01/23 05:47:29;;;;;;;7.75;1.90;;;;;;;17.43;38.41;102225.81;4948238;29;20054;-69
2024/01/23 05:49:54;;;;;;;5.30;1.58;;;;;;;17.43;38.40;102236.34;4948069;28;20464;-69
2024/01/23 05:52:19;;;;;;;6.25;1.88;;;;;;;17.53;38.56;102255.13;4948155;29;20445;-68
2024/01/23 05:54:44;;;;;;;8.07;1.80;;;;;;;17.55;38.73;102267.31;4948416;29;20039;-69
2024/01/23 05:57:10;;;;;;;5.07;1.45;;;;;;;17.43;38.79;102249.53;4947527;29;20035;-70
2024/01/23 05:59:36;;;;;;;5.35;1.58;;;;;;;17.50;38.99;102260.56;4948272;28;20043;-69
2024/01/23 06:02:04;;;;;;;6.93;1.70;;;;;;;17.56;39.04;102273.41;4946130;28;20101;-70
2024/01/23 06:04:29;;;;;;;4.47;1.30;;;;;;;17.53;38.95;102270.94;4947369;28;20496;-70
2024/01/23 06:06:54;;;;;;;4.65;1.42;;;;;;;17.56;39.13;102268.16;4948028;28;20992;-69
2024/01/23 06:09:20;;;;;;;7.47;1.83;;;;;;;17.58;39.30;102269.78;4948351;29;20027;-69
2024/01/23 06:11:45;;;;;;;5.55;1.70;;;;;;;17.61;39.42;102271.41;4948285;28;20309;-69
2024/01/23 06:14:10;;;;;;;7.13;1.85;;;;;;;17.78;39.42;102296.78;4947298;29;20036;-68
2024/01/23 06:16:37;;;;;;;4.63;1.50;;;;;;;17.73;39.17;102281.22;4951545;29;20074;-69
2024/01/23 06:19:03;;;;;;;6.63;2.10;;;;;;;17.77;39.06;102274.84;4950687;29;20070;-69
2024/01/23 06:21:28;;;;;;;5.90;1.40;;;;;;;17.77;39.30;102280.13;4951547;29;20476;-69
2024/01/23 06:23:53;;;;;;;4.88;1.42;;;;;;;17.87;39.38;102291.00;4951269;29;20110;-69
2024/01/23 06:26:19;;;;;;;5.88;1.30;;;;;;;17.81;39.39;102275.50;4950899;29;20488;-70
2024/01/23 06:28:45;;;;;;;6.43;1.45;;;;;;;17.94;39.14;102299.44;4950870;29;20038;-70
2024/01/23 06:31:11;;;;;;;5.65;1.60;;;;;;;17.92;39.14;102298.66;4951053;29;20035;-69
2024/01/23 06:33:36;;;;;;;6.20;1.67;;;;;;;17.94;39.31;102308.22;4950666;28;20498;-69
2024/01/23 06:36:02;;;;;;;6.15;1.50;;;;;;;17.97;39.02;102304.53;4951052;29;20584;-70
2024/01/23 06:38:27;;;;;;;6.15;1.80;;;;;;;17.94;38.75;102302.94;4950852;28;20039;-70
2024/01/23 06:40:53;;;;;;;5.35;1.73;;;;;;;18.04;39.21;102331.41;4950925;29;20114;-69
2024/01/23 06:43:19;;;;;;;5.03;1.38;;;;;;;17.96;38.93;102321.31;4951002;29;20031;-68
2024/01/23 06:45:44;;;;;;;7.72;1.95;;;;;;;18.07;38.81;102337.38;4951019;29;20110;-70
2024/01/23 06:48:09;;;;;;;5.50;1.52;;;;;;;18.09;39.10;102335.47;4950759;29;20748;-69
2024/01/23 06:50:34;;;;;;;6.10;1.67;;;;;;;18.00;39.11;102321.97;4950731;29;20124;-70
2024/01/23 06:53:00;;;;;;;8.02;2.00;;;;;;;18.12;39.40;102342.38;4950836;29;20823;-70
2024/01/23 06:55:25;;;;;;;4.95;1.50;;;;;;;18.08;39.65;102331.13;4950347;29;20039;-70
2024/01/23 06:57:50;;;;;;;6.88;1.63;;;;;;;18.17;39.69;102350.88;4950651;29;20031;-69
2024/01/23 07:00:16;;;;;;;4.50;1.17;;;;;;;18.17;39.85;102348.25;4950699;29;20035;-69
2024/01/23 07:02:42;;;;;;;6.57;1.88;;;;;;;18.08;39.92;102331.13;4948739;28;20519;-69
2024/01/23 07:05:07;;;;;;;8.43;2.30;;;;;;;18.19;40.24;102351.63;4946882;29;20101;-70
2024/01/23 07:07:34;;;;;;;5.53;1.55;;;;;;;18.13;40.35;102333.50;4949592;28;20034;-69
2024/01/23 07:09:59;;;;;;;6.60;1.85;;;;;;;18.25;40.88;102345.16;4948023;28;20392;-69
2024/01/23 07:12:24;;;;;;;4.35;1.45;;;;;;;18.15;40.72;102330.78;4949693;29;20035;-69
2024/01/23 07:14:50;;;;;;;5.57;1.73;;;;;;;18.13;40.54;102333.50;4950054;29;20424;-71
2024/01/23 07:17:15;;;;;;;7.05;1.70;;;;;;;18.18;41.33;102341.16;4950218;29;20038;-69
2024/01/23 07:19:41;;;;;;;6.53;1.70;;;;;;;18.12;41.34;102326.56;4950338;29;20034;-70
2024/01/23 07:22:06;;;;;;;8.23;1.60;;;;;;;18.13;41.35;102334.38;4950417;28;20027;-69
2024/01/23 07:24:31;;;;;;;6.72;1.88;;;;;;;18.10;41.69;102342.47;4949378;28;20047;-70
2024/01/23 07:26:57;;;;;;;6.70;1.60;;;;;;;18.24;41.54;102375.13;4949650;29;20388;-70
2024/01/23 07:29:23;;;;;;;6.07;1.50;;;;;;;18.09;41.51;102355.75;4949549;29;20042;-70
2024/01/23 07:31:48;;;;;;;5.10;1.33;;;;;;;18.12;41.65;102356.41;4949732;28;20118;-70
2024/01/23 07:34:13;;;;;;;5.30;1.60;;;;;;;18.23;42.17;102374.28;4949547;29;20035;-70
2024/01/23 07:36:39;;;;;;;6.35;1.65;;;;;;;18.23;41.95;102378.69;4949311;29;20093;-70
2024/01/23 07:39:05;;;;;;;6.40;1.50;;;;;;;18.09;42.03;102369.78;4949649;29;20201;-70
2024/01/23 07:41:30;;;;;;;9.02;1.95;;;;;;;18.10;42.08;102370.63;4950094;29;20035;-70
2024/01/23 07:43:56;;;;;;;5.85;1.58;;;;;;;18.24;41.79;102396.22;4949788;29;20034;-70
2024/01/23 07:46:22;;;;;;;8.77;1.85;;;;;;;18.15;42.47;102380.91;4950204;29;20085;-69
2024/01/23 07:48:48;;;;;;;5.18;1.60;;;;;;;18.28;41.98;102389.84;4948261;29;20114;-69
2024/01/23 07:51:13;;;;;;;7.80;1.73;;;;;;;18.10;42.21;102374.13;4950307;28;20165;-69
2024/01/23 07:53:39;;;;;;;7.05;2.13;;;;;;;18.16;42.34;102386.09;4945093;29;20023;-70
2024/01/23 07:56:04;;;;;;;6.10;1.85;;;;;;;18.22;42.58;102391.03;4947988;28;20090;-69
2024/01/23 07:58:30;;;;;;;8.43;2.15;;;;;;;18.09;42.52;102375.06;4947847;28;20044;-70
2024/01/23 08:00:56;;;;;;;7.70;2.33;;;;;;;18.24;42.98;102407.63;4947663;29;20027;-70
2024/01/23 08:03:21;;;;;;;7.05;2.05;;;;;;;18.23;43.02;102410.34;4945642;28;20110;-70
2024/01/23 08:05:46;;;;;;;8.35;2.00;;;;;;;18.23;43.33;102415.63;4947974;29;20147;-71
2024/01/23 08:08:12;;;;;;;6.53;2.05;;;;;;;18.13;43.38;102410.91;4948614;29;20043;-72
2024/01/23 08:10:37;;;;;;;10.45;2.28;;;;;;;18.18;43.67;102417.69;4947829;29;20030;-71
2024/01/23 08:13:03;;;;;;;11.65;2.10;;;;;;;18.15;43.70;102420.50;4948085;29;20488;-72
2024/01/23 08:15:29;;;;;;;8.13;2.20;;;;;;;18.24;43.73;102441.09;4948377;28;20027;-72
2024/01/23 08:17:55;;;;;;;5.90;1.55;;;;;;;18.14;43.83;102424.94;4947551;28;20035;-71
2024/01/23 08:20:21;;;;;;;7.45;2.10;;;;;;;18.28;43.99;102456.66;4947812;29;20035;-72
2024/01/23 08:22:46;;;;;;;9.35;2.58;;;;;;;18.25;44.44;102450.72;4948353;28;20039;-72
2024/01/23 08:25:11;;;;;;;7.80;1.80;;;;;;;18.25;43.91;102448.91;4948469;28;20101;-70
2024/01/23 08:27:37;;;;;;;6.90;2.00;;;;;;;18.18;43.86;102430.88;4948378;29;20396;-71
2024/01/23 08:30:02;;;;;;;6.32;1.90;;;;;;;18.23;43.90;102447.28;4948454;29;20392;-70
2024/01/23 08:32:28;;;;;;;7.93;2.20;;;;;;;18.21;44.04;102446.53;4948327;28;20110;-72
2024/01/23 08:34:53;;;;;;;7.72;2.03;;;;;;;18.33;44.26;102474.03;4948419;28;20095;-71
2024/01/23 08:37:18;;;;;;;8.98;1.70;;;;;;;18.31;44.09;102472.34;4948725;29;20464;-71
2024/01/23 08:39:43;;;;;;;7.95;2.28;;;;;;;18.33;44.19;102476.69;4948546;29;20031;-70
2024/01/23 08:42:09;;;;;;;8.32;2.28;;;;;;;18.33;44.08;102480.16;4948201;29;20606;-70
2024/01/23 08:44:35;;;;;;;7.70;1.80;;;;;;;18.23;44.09;102477.19;4948137;29;20039;-69
2024/01/23 08:47:01;;;;;;;6.93;1.73;;;;;;;18.25;43.66;102483.22;4948298;29;20031;-69
2024/01/23 08:49:27;;;;;;;8.35;2.05;;;;;;;18.26;43.67;102492.00;4946735;28;20035;-70
2024/01/23 08:51:52;;;;;;;8.05;2.20;;;;;;;18.20;43.46;102487.91;4947713;29;20046;-69
2024/01/23 08:54:19;;;;;;;7.80;3.00;;;;;;;18.28;43.83;102501.53;4947759;29;20073;-68
2024/01/23 08:56:46;;;;;;;7.68;2.00;;;;;;;18.33;43.84;102509.19;4946528;29;20058;-70
2024/01/23 08:59:11;;;;;;;8.40;1.90;;;;;;;18.31;43.94;102506.66;4946310;29;20041;-70
2024/01/23 09:01:37;;;;;;;6.80;1.75;;;;;;;18.26;43.65;102498.13;4945938;29;20027;-69
2024/01/23 09:04:02;;;;;;;7.88;1.85;;;;;;;18.27;43.75;102507.75;4944334;29;20035;-69
2024/01/23 09:06:27;;;;;;;7.95;1.98;;;;;;;18.23;43.78;102497.44;4946615;28;20393;-70
2024/01/23 09:08:53;;;;;;;7.78;2.05;;;;;;;18.27;43.84;102498.97;4944943;29;20419;-70
2024/01/23 09:11:18;;;;;;;7.17;1.70;;;;;;;18.25;44.13;102495.59;4947153;29;20043;-70
2024/01/23 09:13:43;;;;;;;8.57;2.10;;;;;;;18.13;43.66;102482.13;4947700;29;20311;-70
2024/01/23 09:16:09;;;;;;;4.65;1.42;;;;;;;18.23;43.61;102498.31;4947909;29;20062;-70
2024/01/23 09:18:35;;;;;;;8.80;2.00;;;;;;;18.10;44.07;102479.66;4947871;29;20031;-70
2024/01/23 09:21:02;;;;;;;7.45;2.15;;;;;;;18.14;44.02;102488.25;4947979;28;20153;-70
2024/01/23 09:23:28;;;;;;;9.07;1.80;;;;;;;18.12;43.89;102488.34;4947794;29;20039;-70
2024/01/23 09:25:54;;;;;;;6.80;1.75;;;;;;;18.23;44.06;102502.72;4947874;28;20043;-70
2024/01/23 09:28:19;;;;;;;8.43;1.60;;;;;;;18.11;44.07;102478.72;4947563;29;20083;-70
2024/01/23 09:30:45;;;;;;;7.82;2.30;;;;;;;18.10;44.23;102479.66;4947781;29;20376;-70
2024/01/23 09:33:10;;;;;;;9.05;2.50;;;;;;;18.23;43.71;102500.06;4947795;29;20035;-69
2024/01/23 09:35:36;;;;;;;7.97;2.25;;;;;;;18.21;44.08;102494.03;4946051;29;20054;-69
2024/01/23 09:38:01;;;;;;;6.95;1.63;;;;;;;18.23;44.14;102500.94;4947836;29;20075;-71
2024/01/23 09:40:26;;;;;;;9.20;2.08;;;;;;;18.07;43.78;102479.84;4947339;28;20042;-70
2024/01/23 09:42:55;;;;;;;8.02;1.98;;;;;;;18.22;43.66;102501.88;4947006;28;20031;-69
2024/01/23 09:45:27;;;;;;;5.88;2.13;;;;;;;18.21;43.49;102492.25;4947232;28;20368;-71
2024/01/23 09:47:52;;;;;;;10.00;2.50;;;;;;;18.14;42.91;102493.53;4950629;28;20046;-68
2024/01/23 09:50:18;;;;;;;7.43;2.15;;;;;;;18.23;42.91;102506.22;4952239;29;20035;-69
2024/01/23 09:52:45;;;;;;;7.10;2.40;;;;;;;18.12;42.88;102484.88;4951981;28;20039;-70
2024/01/23 09:55:11;;;;;;;6.72;1.85;;;;;;;18.20;42.63;102495.84;4951628;28;20027;-72
2024/01/23 09:57:40;;;;;;;5.60;2.00;;;;;;;18.12;42.78;102488.34;4951252;29;20546;-70
2024/01/23 10:00:07;;;;;;;8.23;2.28;;;;;;;18.10;42.51;102484.94;4951817;28;20035;-70
2024/01/23 10:02:34;;;;;;;8.00;2.00;;;;;;;18.15;42.61;102491.75;4947402;29;20039;-71
2024/01/23 10:05:01;;;;;;;7.20;1.95;;;;;;;18.18;42.29;102492.41;4951199;28;20050;-70
2024/01/23 10:07:26;;;;;;;7.22;2.00;;;;;;;18.22;42.37;102512.44;4950661;28;20078;-70
2024/01/23 10:09:58;;;;;;;10.35;2.33;;;;;;;18.22;42.38;102503.66;4950979;29;20024;-71
2024/01/23 10:12:23;;;;;;;6.72;1.92;;;;;;;18.22;42.21;102524.78;4951823;28;20045;-70
2024/01/23 10:14:49;;;;;;;7.72;2.15;;;;;;;18.08;41.80;102499.16;4951426;29;20031;-69
2024/01/23 10:17:14;;;;;;;8.20;2.22;;;;;;;18.09;41.71;102501.69;4951734;29;20480;-69
2024/01/23 10:19:40;;;;;;;8.73;2.20;;;;;;;18.14;41.69;102512.00;4951025;28;20042;-69
2024/01/23 10:22:05;;;;;;;7.40;2.38;;;;;;;18.21;42.06;102526.53;4949853;29;20118;-67
2024/01/23 10:24:30;;;;;;;8.15;2.00;;;;;;;18.18;41.71;102510.88;4948512;29;20089;-68
2024/01/23 10:26:56;;;;;;;7.15;1.80;;;;;;;18.22;41.75;102512.44;4948648;29;20071;-67
2024/01/23 10:29:22;;;;;;;10.27;2.28;;;;;;;18.20;41.71;102513.44;4950530;29;20483;-68
2024/01/23 10:31:48;;;;;;;7.60;1.92;;;;;;;18.18;41.47;102510.88;4951303;29;20050;-70
2024/01/23 10:34:13;;;;;;;6.03;2.03;;;;;;;18.20;41.36;102500.25;4950536;28;20035;-68
2024/01/23 10:36:42;;;;;;;6.65;1.77;;;;;;;18.18;41.54;102508.25;4950458;29;20055;-69
2024/01/23 10:39:08;;;;;;;6.93;2.10;;;;;;;18.11;41.80;102494.53;4951047;29;20038;-68
2024/01/23 10:41:34;;;;;;;8.35;2.17;;;;;;;18.11;41.74;102499.81;4947932;29;20031;-70
2024/01/23 10:44:01;;;;;;;7.03;1.52;;;;;;;18.24;41.51;102517.63;4950628;29;20035;-69
2024/01/23 10:46:27;;;;;;;6.50;1.92;;;;;;;18.24;41.43;102514.97;4950244;28;20043;-69
2024/01/23 10:48:53;;;;;;;6.80;2.33;;;;;;;18.16;41.49;102504.00;4950152;28;20134;-67
2024/01/23 10:51:20;;;;;;;6.78;2.05;;;;;;;18.12;41.56;102495.41;4950731;29;20159;-68
2024/01/23 10:53:57;;;;;;;8.73;1.90;;;;;;;18.13;41.86;102489.19;4949027;28;20038;-68
2024/01/23 10:56:29;;;;;;;8.27;2.50;;;;;;;18.25;41.73;102508.78;4950902;28;20138;-69
2024/01/23 10:59:02;;;;;;;8.15;1.80;;;;;;;18.24;41.73;102493.88;4949652;28;20027;-68
2024/01/23 11:01:32;;;;;;;9.25;2.30;;;;;;;18.12;41.43;102479.59;4949517;29;20114;-68
2024/01/23 11:03:59;;;;;;;6.47;1.75;;;;;;;18.26;41.59;102503.41;4948543;28;20763;-67
2024/01/23 11:06:29;;;;;;;6.85;1.83;;;;;;;18.18;41.75;102483.66;4950196;28;20043;-67
2024/01/23 11:09:12;;;;;;;5.82;2.15;;;;;;;18.26;41.65;102495.50;4949174;29;20494;-69
2024/01/23 11:11:46;;;;;;;7.15;2.15;;;;;;;18.27;41.37;102489.25;4949578;28;20468;-67
2024/01/23 11:14:21;;;;;;;6.15;1.90;;;;;;;18.23;41.69;102476.31;4949467;28;20186;-69
2024/01/23 11:17:09;;;;;;;6.15;1.90;;;;;;;18.25;41.73;102463.91;4947913;28;20528;-68